Clarendon, Texas
Current Conditions -  °F | °C
As of 4:35 AM on Monday 20 Oct 2014 (Local Time) from KPPA Reporting Station
Clear Clear  
Wind Chill: 58°   Ceiling: Unl
Heat Index: 58°   Visibility: 10mi
Dew Point: 56°   Wind: 8mph
Humidity: 92%   Direction: 240°WSW
Pressure: 30.07"   Gusts: NA
Location:  34.94°N, 100.89°W
Report Text: KPPA 200935Z AUTO 24007KT 10SM CLR 15/13 A3007 RMK AO2 T01450132 PNO
Loading
Personal Weather Stations






























Interactive Weather Map
Tropical Storm Tracking
New forecast layout! Learn more

10-Day Weather Forecast

Advertisements
Track Severe Weather on mobile